createdAt,value
2024-01-15T00:00:15.572Z,22.02
2024-01-15T00:02:43.632Z,18.80
2024-01-15T00:05:16.811Z,26.30
2024-01-15T00:07:45.856Z,22.85
2024-01-15T00:10:15.516Z,22.98
2024-01-15T00:12:43.775Z,22.33
2024-01-15T00:15:14.770Z,24.80
2024-01-15T00:17:43.088Z,26.58
2024-01-15T00:20:12.070Z,21.13
2024-01-15T00:22:41.620Z,20.10
2024-01-15T00:25:10.776Z,19.20
2024-01-15T00:27:40.383Z,25.52
2024-01-15T00:30:09.527Z,18.48
2024-01-15T00:32:37.897Z,19.75
2024-01-15T00:35:06.846Z,26.52
2024-01-15T00:37:34.978Z,19.95
2024-01-15T00:40:08.755Z,23.98
2024-01-15T00:42:41.389Z,24.98
2024-01-15T00:45:12.479Z,19.15
2024-01-15T00:47:40.950Z,22.25
2024-01-15T00:50:09.719Z,16.42
2024-01-15T00:52:37.811Z,24.63
2024-01-15T00:55:09.178Z,20.90
2024-01-15T00:57:37.550Z,19.98
2024-01-15T01:00:09.868Z,24.45
2024-01-15T01:02:39.597Z,21.20
2024-01-15T01:05:08.079Z,24.33
2024-01-15T01:07:38.780Z,21.92
2024-01-15T01:10:07.826Z,26.20
2024-01-15T01:12:38.857Z,17.90
2024-01-15T01:15:09.145Z,18.45
2024-01-15T01:17:37.656Z,19.95
2024-01-15T01:20:09.588Z,18.25
2024-01-15T01:22:42.470Z,16.58
2024-01-15T01:25:11.248Z,20.05
2024-01-15T01:27:40.866Z,18.48
2024-01-15T01:30:14.713Z,24.48
2024-01-15T01:32:42.991Z,17.98
2024-01-15T01:35:11.246Z,21.33
2024-01-15T01:37:38.603Z,24.50
2024-01-15T01:40:07.936Z,21.65
2024-01-15T01:42:36.329Z,19.00
2024-01-15T01:45:05.104Z,17.40
2024-01-15T01:47:34.987Z,16.25
2024-01-15T01:50:07.347Z,23.75
2024-01-15T01:52:36.446Z,18.35
2024-01-15T01:55:06.504Z,20.10
2024-01-15T01:57:36.491Z,17.80
2024-01-15T02:00:06.028Z,19.75
2024-01-15T02:02:41.427Z,18.45
2024-01-15T02:05:10.871Z,13.52
2024-01-15T02:07:39.178Z,16.85
2024-01-15T02:10:08.044Z,15.50
2024-01-15T02:12:36.298Z,15.02
2024-01-15T02:15:04.761Z,17.95
2024-01-15T02:17:34.243Z,19.98
2024-01-15T02:20:03.958Z,17.50
2024-01-15T02:22:32.196Z,15.65
2024-01-15T02:25:01.551Z,18.40
2024-01-15T02:27:29.859Z,19.95
2024-01-15T02:29:58.550Z,18.27
2024-01-15T02:32:26.903Z,22.98
2024-01-15T02:34:55.444Z,23.80
2024-01-15T02:37:23.821Z,20.83
2024-01-15T02:39:51.840Z,19.58
2024-01-15T02:42:23.757Z,17.38
2024-01-15T02:44:51.993Z,20.25
2024-01-15T02:47:20.199Z,21.83
2024-01-15T02:49:48.334Z,17.70
2024-01-15T02:52:16.646Z,16.50
2024-01-15T02:54:44.917Z,18.08
2024-01-15T02:57:13.086Z,13.57
2024-01-15T02:59:43.673Z,20.67
2024-01-15T03:02:11.825Z,18.55
2024-01-15T03:04:40.005Z,21.20
2024-01-15T03:07:08.279Z,17.02
2024-01-15T03:09:36.560Z,14.32
2024-01-15T03:12:06.598Z,19.30
2024-01-15T03:14:35.063Z,18.33
2024-01-15T03:17:04.882Z,17.02
2024-01-15T03:19:33.123Z,23.80
2024-01-15T03:22:01.858Z,19.55
2024-01-15T03:24:30.223Z,15.20
2024-01-15T03:26:58.362Z,13.25
2024-01-15T03:29:26.474Z,16.40
2024-01-15T03:31:54.914Z,15.55
2024-01-15T03:34:24.493Z,11.57
2024-01-15T03:36:52.838Z,13.35
2024-01-15T03:39:21.061Z,15.45
2024-01-15T03:41:49.319Z,8.77
2024-01-15T03:44:17.482Z,11.10
2024-01-15T03:46:45.581Z,11.52
2024-01-15T03:49:13.898Z,13.90
2024-01-15T03:51:43.401Z,14.90
2024-01-15T03:54:11.531Z,15.77
2024-01-15T03:56:39.639Z,14.88
2024-01-15T03:59:07.727Z,12.25
2024-01-15T04:01:36.048Z,13.07
2024-01-15T04:04:04.244Z,8.15
2024-01-15T04:06:32.477Z,12.63
2024-01-15T04:09:02.562Z,12.55
2024-01-15T04:11:30.854Z,10.02
2024-01-15T04:13:58.914Z,12.68
2024-01-15T04:16:26.935Z,10.20
2024-01-15T04:18:55.080Z,10.57
2024-01-15T04:21:23.511Z,14.55
2024-01-15T04:23:51.705Z,10.07
2024-01-15T04:26:21.232Z,11.80
2024-01-15T04:28:49.485Z,11.68
2024-01-15T04:31:25.218Z,11.98
2024-01-15T04:33:53.660Z,12.00
2024-01-15T04:36:21.825Z,11.90
2024-01-15T04:38:50.098Z,11.30
2024-01-15T04:41:19.072Z,9.77
2024-01-15T04:43:48.727Z,8.65
2024-01-15T04:46:16.886Z,12.07
2024-01-15T04:48:45.340Z,9.15
2024-01-15T04:51:13.389Z,10.25
2024-01-15T04:53:41.484Z,11.52
2024-01-15T04:56:09.503Z,11.65
2024-01-15T04:58:37.795Z,8.93
2024-01-15T05:01:07.391Z,8.88
2024-01-15T05:03:35.730Z,9.25
2024-01-15T05:06:04.122Z,8.90
2024-01-15T05:08:32.603Z,8.05
2024-01-15T05:11:00.647Z,10.35
2024-01-15T05:13:29.231Z,10.13
2024-01-15T05:15:57.366Z,9.57
2024-01-15T05:18:27.134Z,7.72
2024-01-15T05:20:55.351Z,8.90
2024-01-15T05:23:23.570Z,6.32
2024-01-15T05:25:51.718Z,8.68
2024-01-15T05:28:19.966Z,7.63
2024-01-15T05:30:48.325Z,9.27
2024-01-15T05:33:16.646Z,8.65
2024-01-15T05:35:46.306Z,8.20
2024-01-15T05:38:14.433Z,11.00
2024-01-15T05:40:42.798Z,9.70
2024-01-15T05:43:10.874Z,8.88
2024-01-15T05:45:40.777Z,7.05
2024-01-15T05:48:09.093Z,11.70
2024-01-15T05:50:37.557Z,8.68
2024-01-15T05:53:07.075Z,9.68
2024-01-15T05:55:35.190Z,7.88
2024-01-15T05:58:03.255Z,9.40
2024-01-15T06:00:31.425Z,9.55
2024-01-15T06:02:59.648Z,8.82
2024-01-15T06:05:27.829Z,6.10
2024-01-15T06:07:55.852Z,14.90
2024-01-15T06:10:25.415Z,8.65
2024-01-15T06:12:53.488Z,8.15
2024-01-15T06:15:21.581Z,7.70
2024-01-15T06:17:49.774Z,7.55
2024-01-15T06:20:18.034Z,9.07
2024-01-15T06:22:46.222Z,7.35
2024-01-15T06:25:14.279Z,10.60
2024-01-15T06:27:43.697Z,7.72
2024-01-15T06:30:13.487Z,10.07
2024-01-15T06:32:41.956Z,7.93
2024-01-15T06:35:11.741Z,8.65
2024-01-15T06:37:39.839Z,6.47
2024-01-15T06:40:09.628Z,9.35
2024-01-15T06:42:37.766Z,6.35
2024-01-15T06:45:08.495Z,7.78
2024-01-15T06:47:36.646Z,6.45
2024-01-15T06:50:06.273Z,5.93
2024-01-15T06:52:34.389Z,5.60
2024-01-15T06:55:02.506Z,6.97
2024-01-15T06:57:30.613Z,6.05
2024-01-15T06:59:58.682Z,10.27
2024-01-15T07:02:28.304Z,6.78
2024-01-15T07:04:56.826Z,8.00
2024-01-15T07:07:24.984Z,12.95
2024-01-15T07:09:53.969Z,11.80
2024-01-15T07:12:22.127Z,11.32
2024-01-15T07:14:50.225Z,11.70
2024-01-15T07:17:18.403Z,10.60
2024-01-15T07:19:47.879Z,11.52
2024-01-15T07:22:18.307Z,12.20
2024-01-15T07:24:46.494Z,9.10
2024-01-15T07:27:14.733Z,10.82
2024-01-15T07:29:44.033Z,11.23
2024-01-15T07:32:12.183Z,10.48
2024-01-15T07:34:40.285Z,12.05
2024-01-15T07:37:09.737Z,9.57
2024-01-15T07:39:37.995Z,14.85
2024-01-15T07:42:06.653Z,13.02
2024-01-15T07:44:34.863Z,13.00
2024-01-15T07:47:03.058Z,12.18
2024-01-15T07:49:31.385Z,10.25
2024-01-15T07:51:59.803Z,12.88
2024-01-15T07:54:29.343Z,8.45
2024-01-15T07:56:58.662Z,14.77
2024-01-15T07:59:26.901Z,9.75
2024-01-15T08:01:55.644Z,10.63
2024-01-15T08:04:24.238Z,12.13
2024-01-15T08:06:55.222Z,12.18
2024-01-15T08:09:23.407Z,6.55
2024-01-15T08:11:53.131Z,8.75
2024-01-15T08:14:21.439Z,8.52
2024-01-15T08:16:49.706Z,7.13
2024-01-15T08:19:18.194Z,11.13
2024-01-15T08:21:46.698Z,9.85
2024-01-15T08:24:14.925Z,7.57
2024-01-15T08:26:43.097Z,8.23
2024-01-15T08:29:12.958Z,10.27
2024-01-15T08:31:41.530Z,6.90
2024-01-15T08:34:09.850Z,7.15
2024-01-15T08:36:38.349Z,9.40
2024-01-15T08:39:06.592Z,7.53
2024-01-15T08:41:35.923Z,8.45
2024-01-15T08:44:04.511Z,6.82
2024-01-15T08:46:33.941Z,7.97
2024-01-15T08:49:02.105Z,7.43
2024-01-15T08:51:30.453Z,6.88
2024-01-15T08:53:58.895Z,7.78
2024-01-15T08:56:28.732Z,13.23
2024-01-15T08:58:57.288Z,5.57
2024-01-15T09:01:25.616Z,6.80
2024-01-15T09:03:55.459Z,8.32
2024-01-15T09:06:23.920Z,6.45
2024-01-15T09:08:52.293Z,8.68
2024-01-15T09:11:20.419Z,5.60
2024-01-15T09:13:48.773Z,9.57
2024-01-15T09:16:17.080Z,7.53
2024-01-15T09:18:45.697Z,5.60
2024-01-15T09:21:15.216Z,5.10
2024-01-15T09:23:43.732Z,7.47
2024-01-15T09:26:11.949Z,5.22
2024-01-15T09:28:40.032Z,7.07
2024-01-15T09:31:08.416Z,8.85
2024-01-15T09:33:36.654Z,7.25
2024-01-15T09:36:05.844Z,6.38
2024-01-15T09:38:35.956Z,4.68
2024-01-15T09:41:04.221Z,5.88
2024-01-15T09:43:32.981Z,6.47
2024-01-15T09:46:01.588Z,6.95
2024-01-15T09:48:30.181Z,6.28
2024-01-15T09:51:00.152Z,6.72
2024-01-15T09:53:28.460Z,4.85
2024-01-15T09:55:58.733Z,11.77
2024-01-15T09:58:27.435Z,5.82
2024-01-15T10:00:56.482Z,6.25
2024-01-15T10:03:24.872Z,7.63
2024-01-15T10:05:53.442Z,8.07
2024-01-15T10:08:22.397Z,10.88
2024-01-15T10:10:50.738Z,7.93
2024-01-15T10:13:21.655Z,5.15
2024-01-15T10:15:49.926Z,6.20
2024-01-15T10:18:18.470Z,7.45
2024-01-15T10:20:47.278Z,7.22
2024-01-15T10:23:16.910Z,9.65
2024-01-15T10:25:45.145Z,8.88
2024-01-15T10:28:13.169Z,10.60
2024-01-15T10:30:42.982Z,7.70
2024-01-15T10:33:13.191Z,7.72
2024-01-15T10:35:43.050Z,8.68
2024-01-15T10:38:11.200Z,10.27
2024-01-15T10:40:39.655Z,8.18
2024-01-15T10:43:07.806Z,7.45
2024-01-15T10:45:36.092Z,8.05
2024-01-15T10:48:06.509Z,7.50
2024-01-15T10:50:34.957Z,5.93
2024-01-15T10:53:03.862Z,6.78
2024-01-15T10:55:33.482Z,6.60
2024-01-15T10:58:02.439Z,5.13
2024-01-15T11:00:31.036Z,5.95
2024-01-15T11:02:59.760Z,8.55
2024-01-15T11:05:29.829Z,6.20
2024-01-15T11:07:58.446Z,12.23
2024-01-15T11:10:48.028Z,7.70
2024-01-15T11:13:17.589Z,7.40
2024-01-15T11:16:02.341Z,12.20
2024-01-15T11:18:32.384Z,6.07
2024-01-15T11:21:25.041Z,8.20
2024-01-15T11:23:56.201Z,6.47
2024-01-15T11:26:36.884Z,7.40
2024-01-15T11:29:07.153Z,8.50
2024-01-15T11:32:07.397Z,7.78
2024-01-15T11:35:03.285Z,8.50
2024-01-15T11:38:02.626Z,9.77
2024-01-15T11:40:43.725Z,9.25
2024-01-15T11:43:14.433Z,6.45
2024-01-15T11:45:43.301Z,8.88
2024-01-15T11:48:12.422Z,8.80
2024-01-15T11:50:43.579Z,8.20
2024-01-15T11:53:20.311Z,13.15
2024-01-15T11:55:49.830Z,10.57
2024-01-15T11:58:18.961Z,8.93
2024-01-15T12:00:50.938Z,11.20
2024-01-15T12:03:19.912Z,8.57
2024-01-15T12:05:50.307Z,8.68
2024-01-15T12:08:25.099Z,9.77
2024-01-15T12:10:54.096Z,9.15
2024-01-15T12:13:23.672Z,8.57
2024-01-15T12:15:52.649Z,6.80
2024-01-15T12:18:21.925Z,9.32
2024-01-15T12:20:51.352Z,9.80
2024-01-15T12:23:20.558Z,8.13
2024-01-15T12:25:51.038Z,9.15
2024-01-15T12:28:19.265Z,7.38
2024-01-15T12:30:51.391Z,5.50
2024-01-15T12:33:21.149Z,7.00
2024-01-15T12:35:49.701Z,10.77
2024-01-15T12:38:21.101Z,4.53
2024-01-15T12:40:50.975Z,7.75
2024-01-15T12:43:19.773Z,5.90
2024-01-15T12:45:48.547Z,5.32
2024-01-15T12:48:19.400Z,3.92
2024-01-15T12:51:12.828Z,5.35
2024-01-15T12:53:42.892Z,4.38
2024-01-15T12:56:12.654Z,3.53
2024-01-15T12:58:40.908Z,3.00
2024-01-15T13:01:09.396Z,3.42
2024-01-15T13:03:37.831Z,2.65
2024-01-15T13:06:07.480Z,5.32
2024-01-15T13:08:35.667Z,3.67
2024-01-15T13:11:04.367Z,4.15
2024-01-15T13:13:35.491Z,3.20
2024-01-15T13:16:03.807Z,4.93
2024-01-15T13:18:32.240Z,3.33
2024-01-15T13:21:01.475Z,3.67
2024-01-15T13:23:29.789Z,7.80
2024-01-15T13:25:57.923Z,6.93
2024-01-15T13:28:26.614Z,4.82
2024-01-15T13:30:56.594Z,5.65
2024-01-15T13:33:25.049Z,4.68
2024-01-15T13:35:53.387Z,7.97
2024-01-15T13:38:21.657Z,5.90
2024-01-15T13:40:49.960Z,9.43
2024-01-15T13:43:19.710Z,6.57
2024-01-15T13:45:48.052Z,5.80
2024-01-15T13:48:21.085Z,11.13
2024-01-15T13:50:49.437Z,6.35
2024-01-15T13:53:17.689Z,10.32
2024-01-15T13:55:46.179Z,7.65
2024-01-15T13:58:14.369Z,6.68
2024-01-15T14:00:42.614Z,6.88
2024-01-15T14:03:10.743Z,7.78
2024-01-15T14:05:40.318Z,7.93
2024-01-15T14:08:09.069Z,8.75
2024-01-15T14:20:23.316Z,12.95
2024-01-15T14:22:53.044Z,11.43
2024-01-15T14:25:21.545Z,8.60
2024-01-15T14:27:49.970Z,12.25
2024-01-15T14:30:18.752Z,12.45
2024-01-15T14:32:47.095Z,10.35
2024-01-15T14:35:15.803Z,11.93
2024-01-15T14:37:44.207Z,13.50
2024-01-15T14:40:15.379Z,12.57
2024-01-15T14:42:44.647Z,12.40
2024-01-15T14:45:14.075Z,14.10
2024-01-15T14:47:43.347Z,11.75
2024-01-15T14:50:13.522Z,11.45
2024-01-15T14:52:43.235Z,18.15
2024-01-15T14:55:13.062Z,14.52
2024-01-15T14:57:41.414Z,9.65
2024-01-15T15:00:10.962Z,12.32
2024-01-15T15:02:39.561Z,9.02
2024-01-15T15:05:09.177Z,11.23
2024-01-15T15:07:38.396Z,9.18
2024-01-15T15:10:10.708Z,11.02
2024-01-15T15:12:49.187Z,15.50
2024-01-15T15:15:44.670Z,11.48
2024-01-15T15:18:18.440Z,9.60
2024-01-15T15:20:48.281Z,11.07
2024-01-15T15:23:16.785Z,14.23
2024-01-15T15:25:45.485Z,16.73
2024-01-15T15:28:17.430Z,13.52
2024-01-15T15:30:45.890Z,8.68
2024-01-15T15:33:15.364Z,12.02
2024-01-15T15:35:43.980Z,11.40
2024-01-15T15:38:12.895Z,10.25
2024-01-15T15:40:45.647Z,12.95
2024-01-15T15:43:19.965Z,15.00
2024-01-15T15:45:48.692Z,10.23
2024-01-15T15:48:17.150Z,10.52
2024-01-15T15:50:45.690Z,14.25
2024-01-15T15:53:14.505Z,10.38
2024-01-15T15:55:42.877Z,10.32
2024-01-15T15:58:11.173Z,14.70
2024-01-15T16:00:40.945Z,9.07
2024-01-15T16:03:09.264Z,12.32
2024-01-15T16:05:45.374Z,12.63
2024-01-15T16:08:20.846Z,9.98
2024-01-15T16:10:52.436Z,14.73
2024-01-15T16:13:21.449Z,9.98
2024-01-15T16:15:51.464Z,9.68
2024-01-15T16:23:20.528Z,14.50
2024-01-15T16:23:35.263Z,13.55
2024-01-15T16:24:13.068Z,12.35
2024-01-15T16:26:45.902Z,14.00
2024-01-15T16:29:14.442Z,10.60
2024-01-15T16:31:44.534Z,11.95
2024-01-15T16:34:13.515Z,9.95
2024-01-15T16:36:42.202Z,11.10
2024-01-15T16:39:12.417Z,10.10
2024-01-15T16:41:41.627Z,11.63
2024-01-15T16:44:08.989Z,10.52
2024-01-15T16:46:37.345Z,11.55
2024-01-15T16:49:11.207Z,12.90
2024-01-15T16:51:39.676Z,9.27
2024-01-15T16:54:08.862Z,10.52
2024-01-15T16:56:37.388Z,12.88
2024-01-15T16:59:05.957Z,9.57
2024-01-15T17:01:34.370Z,12.90
2024-01-15T17:04:02.880Z,12.48
2024-01-15T17:06:32.568Z,10.63
2024-01-15T17:09:01.151Z,9.88
2024-01-15T17:11:30.041Z,12.70
2024-01-15T17:13:59.205Z,9.63
2024-01-15T17:16:27.797Z,11.63
2024-01-15T17:18:56.517Z,8.48
2024-01-15T17:21:25.036Z,8.80
2024-01-15T17:23:55.235Z,9.18
2024-01-15T17:26:23.661Z,14.25
2024-01-15T17:28:52.180Z,12.40
2024-01-15T17:31:21.297Z,12.30
2024-01-15T17:33:49.940Z,7.50
2024-01-15T17:36:18.458Z,11.88
2024-01-15T17:38:46.870Z,7.20
2024-01-15T17:41:16.745Z,9.27
2024-01-15T17:43:45.143Z,9.25
2024-01-15T17:46:15.795Z,8.40
2024-01-15T17:48:44.160Z,8.82
2024-01-15T17:51:18.919Z,9.35
2024-01-15T17:53:48.065Z,7.70
2024-01-15T17:56:18.791Z,9.50
2024-01-15T17:58:47.248Z,10.65
2024-01-15T18:01:16.121Z,9.05
2024-01-15T18:03:44.515Z,11.63
2024-01-15T18:06:12.916Z,8.02
2024-01-15T18:08:41.297Z,9.65
2024-01-15T18:11:10.170Z,9.55
2024-01-15T18:13:39.865Z,7.20
2024-01-15T18:16:09.518Z,9.60
2024-01-15T18:18:38.161Z,7.70
2024-01-15T18:21:07.000Z,8.65
2024-01-15T18:23:35.791Z,7.13
2024-01-15T18:26:04.216Z,8.25
2024-01-15T18:28:32.742Z,6.75
2024-01-15T18:31:02.353Z,9.13
2024-01-15T18:33:30.994Z,11.85
2024-01-15T18:35:59.389Z,10.13
2024-01-15T18:38:27.678Z,7.00
2024-01-15T18:40:56.284Z,7.07
2024-01-15T18:43:24.849Z,6.35
2024-01-15T18:45:53.400Z,7.25
2024-01-15T18:48:23.443Z,7.28
2024-01-15T18:50:52.544Z,7.13
2024-01-15T18:53:20.970Z,11.18
2024-01-15T18:55:49.302Z,8.63
2024-01-15T18:58:17.907Z,7.70
2024-01-15T19:00:46.845Z,7.43
2024-01-15T19:03:15.143Z,11.13
2024-01-15T19:05:45.629Z,9.80
2024-01-15T19:08:14.065Z,10.60
2024-01-15T19:10:42.820Z,15.40
2024-01-15T19:13:13.153Z,7.82
2024-01-15T19:15:41.807Z,8.40
2024-01-15T19:18:10.769Z,7.47
2024-01-15T19:20:42.573Z,14.52
2024-01-15T19:23:12.913Z,7.07
2024-01-15T19:28:37.116Z,7.68
2024-01-15T19:31:17.966Z,8.32
2024-01-15T19:34:15.877Z,8.20
2024-01-15T19:37:09.091Z,6.43
2024-01-15T19:39:39.408Z,7.88
2024-01-15T19:42:12.426Z,9.40
2024-01-15T19:48:05.633Z,7.35
2024-01-15T19:50:34.720Z,6.32
2024-01-15T19:53:06.615Z,6.75
2024-01-15T19:55:37.429Z,6.20
2024-01-15T19:58:10.301Z,8.18
2024-01-15T20:00:43.953Z,6.60
2024-01-15T20:03:12.571Z,7.47
2024-01-15T20:05:41.215Z,5.90
2024-01-15T20:08:09.608Z,5.22
2024-01-15T20:10:39.996Z,7.35
2024-01-15T20:13:08.461Z,8.10
2024-01-15T20:15:38.997Z,6.07
2024-01-15T20:18:09.520Z,7.22
2024-01-15T20:20:38.222Z,7.10
2024-01-15T20:23:07.088Z,6.65
2024-01-15T20:25:36.404Z,8.05
2024-01-15T20:28:09.676Z,5.40
2024-01-15T20:30:46.332Z,6.55
2024-01-15T20:33:21.889Z,4.65
2024-01-15T20:35:54.708Z,6.10
2024-01-15T20:38:25.735Z,5.85
2024-01-15T20:40:54.553Z,7.60
2024-01-15T20:43:26.462Z,7.25
2024-01-15T20:46:00.881Z,7.60
2024-01-15T20:48:43.734Z,6.70
2024-01-15T20:51:23.215Z,7.32
2024-01-15T20:53:52.724Z,4.53
2024-01-15T20:59:51.951Z,5.35
2024-01-15T21:06:01.640Z,8.50
2024-01-15T21:09:11.805Z,7.90
2024-01-15T21:11:47.457Z,8.57
2024-01-15T21:14:24.500Z,4.65
2024-01-15T21:17:01.122Z,6.50
2024-01-15T21:19:37.502Z,6.90
2024-01-15T21:22:14.422Z,4.53
2024-01-15T21:24:59.570Z,6.80
2024-01-15T21:27:38.940Z,6.28
2024-01-15T21:30:20.517Z,4.85
2024-01-15T21:32:59.336Z,7.53
2024-01-15T21:35:32.822Z,9.65
2024-01-15T21:38:02.844Z,8.93
2024-01-15T21:40:34.896Z,9.43
2024-01-15T21:43:10.768Z,5.90
2024-01-15T21:45:43.191Z,7.20
2024-01-15T21:48:13.468Z,5.55
2024-01-15T21:50:42.866Z,8.10
2024-01-15T21:53:12.214Z,6.55
2024-01-15T21:55:41.304Z,10.45
2024-01-15T21:58:12.418Z,5.88
2024-01-15T22:00:40.917Z,7.15
2024-01-15T22:03:09.286Z,7.57
2024-01-15T22:05:40.042Z,8.70
2024-01-15T22:08:08.238Z,11.57
2024-01-15T22:10:36.506Z,10.65
2024-01-15T22:13:04.772Z,11.25
2024-01-15T22:15:33.156Z,5.93
2024-01-15T22:18:04.135Z,5.15
2024-01-15T22:20:32.776Z,5.13
2024-01-15T22:23:02.545Z,5.78
2024-01-15T22:25:33.353Z,6.95
2024-01-15T22:28:01.585Z,8.48
2024-01-15T22:30:31.037Z,8.88
2024-01-15T22:32:59.393Z,5.07
2024-01-15T22:35:27.990Z,7.95
2024-01-15T22:37:56.292Z,6.57
2024-01-15T22:40:25.927Z,7.93
2024-01-15T22:42:54.153Z,8.55
2024-01-15T22:45:22.524Z,10.00
2024-01-15T22:47:51.357Z,6.07
2024-01-15T22:50:19.774Z,7.50
2024-01-15T22:52:48.037Z,8.77
2024-01-15T22:55:16.182Z,10.05
2024-01-15T22:57:46.082Z,6.50
2024-01-15T23:00:20.101Z,5.50
2024-01-15T23:02:48.971Z,7.35
2024-01-15T23:05:18.249Z,6.97
2024-01-15T23:07:47.247Z,8.30
2024-01-15T23:10:15.523Z,6.75
2024-01-15T23:12:45.145Z,8.40
2024-01-15T23:15:14.173Z,7.20
2024-01-15T23:17:44.837Z,7.85
2024-01-15T23:20:14.043Z,7.07
2024-01-15T23:22:42.550Z,6.97
2024-01-15T23:25:11.304Z,7.50
2024-01-15T23:27:39.973Z,8.48
2024-01-15T23:30:10.763Z,5.55
2024-01-15T23:32:39.379Z,7.10
2024-01-15T23:35:08.176Z,4.68
2024-01-15T23:37:36.316Z,7.82
2024-01-15T23:40:05.818Z,6.10
2024-01-15T23:42:34.120Z,5.65
2024-01-15T23:45:02.383Z,4.47
2024-01-15T23:47:32.084Z,5.90
2024-01-15T23:50:00.443Z,6.93
2024-01-15T23:52:28.745Z,5.75
2024-01-15T23:54:56.905Z,8.07
2024-01-15T23:57:25.549Z,5.88
2024-01-15T23:59:53.753Z,4.35
